sensor_id;sensor_type;location;lat;lon;timestamp;P1;durP1;ratioP1;P2;durP2;ratioP2
36415;SDS011;22447;44.530;18.620;2023-01-15T00:01:05;613.67;;;190.98;;
36415;SDS011;22447;44.530;18.620;2023-01-15T00:03:45;421.30;;;149.43;;
36415;SDS011;22447;44.530;18.620;2023-01-15T00:06:11;445.95;;;143.38;;
36415;SDS011;22447;44.530;18.620;2023-01-15T00:08:37;466.70;;;146.45;;
36415;SDS011;22447;44.530;18.620;2023-01-15T00:11:03;467.08;;;142.98;;
36415;SDS011;22447;44.530;18.620;2023-01-15T00:13:30;452.70;;;147.38;;
36415;SDS011;22447;44.530;18.620;2023-01-15T00:16:13;499.30;;;160.48;;
36415;SDS011;22447;44.530;18.620;2023-01-15T00:18:41;497.55;;;153.02;;
36415;SDS011;22447;44.530;18.620;2023-01-15T00:21:09;442.95;;;147.30;;
36415;SDS011;22447;44.530;18.620;2023-01-15T00:23:37;1078.90;;;240.95;;
36415;SDS011;22447;44.530;18.620;2023-01-15T00:26:22;943.25;;;216.52;;
36415;SDS011;22447;44.530;18.620;2023-01-15T00:29:12;544.20;;;156.70;;
36415;SDS011;22447;44.530;18.620;2023-01-15T00:31:40;593.38;;;164.63;;
36415;SDS011;22447;44.530;18.620;2023-01-15T00:34:07;522.10;;;155.57;;
36415;SDS011;22447;44.530;18.620;2023-01-15T00:36:33;509.33;;;147.95;;
36415;SDS011;22447;44.530;18.620;2023-01-15T00:39:02;441.25;;;129.63;;
36415;SDS011;22447;44.530;18.620;2023-01-15T00:41:29;719.33;;;175.75;;
36415;SDS011;22447;44.530;18.620;2023-01-15T00:43:55;502.52;;;136.73;;
36415;SDS011;22447;44.530;18.620;2023-01-15T00:46:21;476.75;;;140.80;;
36415;SDS011;22447;44.530;18.620;2023-01-15T00:48:47;389.98;;;127.65;;
36415;SDS011;22447;44.530;18.620;2023-01-15T00:51:14;473.63;;;144.52;;
36415;SDS011;22447;44.530;18.620;2023-01-15T00:53:40;589.50;;;163.82;;
36415;SDS011;22447;44.530;18.620;2023-01-15T00:56:06;418.67;;;141.60;;
36415;SDS011;22447;44.530;18.620;2023-01-15T00:58:32;471.52;;;151.00;;
36415;SDS011;22447;44.530;18.620;2023-01-15T01:00:58;549.25;;;168.48;;
36415;SDS011;22447;44.530;18.620;2023-01-15T01:03:27;405.92;;;144.55;;
36415;SDS011;22447;44.530;18.620;2023-01-15T01:05:58;497.40;;;164.25;;
36415;SDS011;22447;44.530;18.620;2023-01-15T01:08:25;457.70;;;163.77;;
36415;SDS011;22447;44.530;18.620;2023-01-15T01:10:59;472.52;;;160.00;;
36415;SDS011;22447;44.530;18.620;2023-01-15T01:13:30;550.70;;;171.52;;
36415;SDS011;22447;44.530;18.620;2023-01-15T01:15:58;397.10;;;152.70;;
36415;SDS011;22447;44.530;18.620;2023-01-15T01:18:24;467.42;;;162.73;;
36415;SDS011;22447;44.530;18.620;2023-01-15T01:20:51;447.63;;;159.80;;
36415;SDS011;22447;44.530;18.620;2023-01-15T01:23:17;535.25;;;191.38;;
36415;SDS011;22447;44.530;18.620;2023-01-15T01:25:44;513.13;;;191.52;;
36415;SDS011;22447;44.530;18.620;2023-01-15T01:28:10;425.98;;;165.45;;
36415;SDS011;22447;44.530;18.620;2023-01-15T01:30:36;468.90;;;160.38;;
36415;SDS011;22447;44.530;18.620;2023-01-15T01:33:02;420.17;;;150.38;;
36415;SDS011;22447;44.530;18.620;2023-01-15T01:35:29;450.15;;;161.80;;
36415;SDS011;22447;44.530;18.620;2023-01-15T01:37:55;371.23;;;147.43;;
36415;SDS011;22447;44.530;18.620;2023-01-15T01:40:21;377.63;;;146.00;;
36415;SDS011;22447;44.530;18.620;2023-01-15T01:42:48;455.15;;;153.32;;
36415;SDS011;22447;44.530;18.620;2023-01-15T01:45:18;371.70;;;146.43;;
36415;SDS011;22447;44.530;18.620;2023-01-15T01:47:55;385.23;;;143.30;;
36415;SDS011;22447;44.530;18.620;2023-01-15T01:50:24;314.55;;;121.43;;
36415;SDS011;22447;44.530;18.620;2023-01-15T01:52:57;268.60;;;113.03;;
36415;SDS011;22447;44.530;18.620;2023-01-15T01:55:27;251.93;;;110.15;;
36415;SDS011;22447;44.530;18.620;2023-01-15T01:57:57;271.85;;;111.50;;
36415;SDS011;22447;44.530;18.620;2023-01-15T02:00:24;226.35;;;99.93;;
36415;SDS011;22447;44.530;18.620;2023-01-15T02:02:52;283.63;;;117.70;;
36415;SDS011;22447;44.530;18.620;2023-01-15T02:05:26;249.82;;;106.20;;
36415;SDS011;22447;44.530;18.620;2023-01-15T02:07:55;240.95;;;99.18;;
36415;SDS011;22447;44.530;18.620;2023-01-15T02:10:22;261.02;;;107.32;;
36415;SDS011;22447;44.530;18.620;2023-01-15T02:12:53;239.20;;;101.93;;
36415;SDS011;22447;44.530;18.620;2023-01-15T02:15:47;227.70;;;96.75;;
36415;SDS011;22447;44.530;18.620;2023-01-15T02:18:21;235.80;;;97.97;;
36415;SDS011;22447;44.530;18.620;2023-01-15T02:20:58;213.23;;;93.72;;
36415;SDS011;22447;44.530;18.620;2023-01-15T02:26:18;218.13;;;92.97;;
36415;SDS011;22447;44.530;18.620;2023-01-15T02:29:26;206.73;;;89.75;;
36415;SDS011;22447;44.530;18.620;2023-01-15T02:32:06;224.85;;;92.65;;
36415;SDS011;22447;44.530;18.620;2023-01-15T02:34:36;208.38;;;88.63;;
36415;SDS011;22447;44.530;18.620;2023-01-15T02:37:09;265.05;;;106.55;;
36415;SDS011;22447;44.530;18.620;2023-01-15T02:39:41;186.23;;;83.57;;
36415;SDS011;22447;44.530;18.620;2023-01-15T02:42:12;210.98;;;86.65;;
36415;SDS011;22447;44.530;18.620;2023-01-15T02:44:46;195.73;;;85.63;;
36415;SDS011;22447;44.530;18.620;2023-01-15T02:47:16;197.52;;;84.07;;
36415;SDS011;22447;44.530;18.620;2023-01-15T02:49:47;255.80;;;95.05;;
36415;SDS011;22447;44.530;18.620;2023-01-15T02:52:27;198.88;;;82.82;;
36415;SDS011;22447;44.530;18.620;2023-01-15T02:55:03;200.82;;;80.25;;
36415;SDS011;22447;44.530;18.620;2023-01-15T02:57:37;190.60;;;80.83;;
36415;SDS011;22447;44.530;18.620;2023-01-15T03:00:07;179.88;;;74.47;;
36415;SDS011;22447;44.530;18.620;2023-01-15T03:02:38;159.55;;;72.75;;
36415;SDS011;22447;44.530;18.620;2023-01-15T03:05:21;167.00;;;71.85;;
36415;SDS011;22447;44.530;18.620;2023-01-15T03:08:01;190.57;;;77.85;;
36415;SDS011;22447;44.530;18.620;2023-01-15T03:10:46;165.90;;;70.95;;
36415;SDS011;22447;44.530;18.620;2023-01-15T03:13:49;194.82;;;74.13;;
36415;SDS011;22447;44.530;18.620;2023-01-15T03:19:23;249.07;;;88.65;;
36415;SDS011;22447;44.530;18.620;2023-01-15T03:22:00;236.23;;;76.95;;
36415;SDS011;22447;44.530;18.620;2023-01-15T03:24:29;249.68;;;86.35;;
36415;SDS011;22447;44.530;18.620;2023-01-15T03:27:02;328.58;;;82.80;;
36415;SDS011;22447;44.530;18.620;2023-01-15T03:29:30;408.23;;;93.65;;
36415;SDS011;22447;44.530;18.620;2023-01-15T03:31:59;461.23;;;97.60;;
36415;SDS011;22447;44.530;18.620;2023-01-15T03:34:28;285.80;;;82.78;;
36415;SDS011;22447;44.530;18.620;2023-01-15T03:37:03;354.15;;;90.38;;
36415;SDS011;22447;44.530;18.620;2023-01-15T03:39:29;557.35;;;108.75;;
36415;SDS011;22447;44.530;18.620;2023-01-15T03:52:43;339.08;;;85.15;;
36415;SDS011;22447;44.530;18.620;2023-01-15T03:55:35;444.63;;;92.55;;
36415;SDS011;22447;44.530;18.620;2023-01-15T03:58:17;520.28;;;105.25;;
36415;SDS011;22447;44.530;18.620;2023-01-15T04:00:52;339.02;;;81.82;;
36415;SDS011;22447;44.530;18.620;2023-01-15T04:03:24;269.75;;;83.25;;
36415;SDS011;22447;44.530;18.620;2023-01-15T04:05:53;306.95;;;80.60;;
36415;SDS011;22447;44.530;18.620;2023-01-15T04:08:22;201.68;;;71.75;;
36415;SDS011;22447;44.530;18.620;2023-01-15T04:10:56;207.05;;;75.35;;
36415;SDS011;22447;44.530;18.620;2023-01-15T04:13:28;339.02;;;83.07;;
36415;SDS011;22447;44.530;18.620;2023-01-15T04:15:54;233.43;;;73.80;;
36415;SDS011;22447;44.530;18.620;2023-01-15T04:18:20;343.77;;;86.53;;
36415;SDS011;22447;44.530;18.620;2023-01-15T04:20:47;368.27;;;93.78;;
36415;SDS011;22447;44.530;18.620;2023-01-15T04:23:14;509.70;;;106.28;;
36415;SDS011;22447;44.530;18.620;2023-01-15T04:25:40;255.32;;;78.65;;
36415;SDS011;22447;44.530;18.620;2023-01-15T04:28:06;257.52;;;81.55;;
36415;SDS011;22447;44.530;18.620;2023-01-15T04:30:33;226.82;;;75.85;;
36415;SDS011;22447;44.530;18.620;2023-01-15T04:33:00;244.13;;;84.72;;
36415;SDS011;22447;44.530;18.620;2023-01-15T04:35:27;304.63;;;93.57;;
36415;SDS011;22447;44.530;18.620;2023-01-15T04:37:53;231.32;;;76.72;;
36415;SDS011;22447;44.530;18.620;2023-01-15T04:40:23;279.70;;;83.13;;
36415;SDS011;22447;44.530;18.620;2023-01-15T04:43:09;233.13;;;78.25;;
36415;SDS011;22447;44.530;18.620;2023-01-15T04:45:54;201.57;;;73.38;;
36415;SDS011;22447;44.530;18.620;2023-01-15T04:48:21;260.00;;;82.50;;
36415;SDS011;22447;44.530;18.620;2023-01-15T04:50:47;330.67;;;90.18;;
36415;SDS011;22447;44.530;18.620;2023-01-15T04:53:13;213.57;;;74.82;;
36415;SDS011;22447;44.530;18.620;2023-01-15T04:55:39;487.20;;;101.00;;
36415;SDS011;22447;44.530;18.620;2023-01-15T04:58:05;197.45;;;71.78;;
36415;SDS011;22447;44.530;18.620;2023-01-15T05:00:31;190.25;;;73.00;;
36415;SDS011;22447;44.530;18.620;2023-01-15T05:02:57;207.00;;;69.90;;
36415;SDS011;22447;44.530;18.620;2023-01-15T05:05:23;296.33;;;80.18;;
36415;SDS011;22447;44.530;18.620;2023-01-15T05:07:49;209.48;;;71.47;;
36415;SDS011;22447;44.530;18.620;2023-01-15T05:10:15;179.30;;;70.40;;
36415;SDS011;22447;44.530;18.620;2023-01-15T05:12:41;153.32;;;66.22;;
36415;SDS011;22447;44.530;18.620;2023-01-15T05:15:07;158.95;;;59.00;;
36415;SDS011;22447;44.530;18.620;2023-01-15T05:17:33;177.27;;;64.35;;
36415;SDS011;22447;44.530;18.620;2023-01-15T05:19:59;152.00;;;57.40;;
36415;SDS011;22447;44.530;18.620;2023-01-15T05:22:25;133.70;;;57.00;;
36415;SDS011;22447;44.530;18.620;2023-01-15T05:24:51;150.15;;;56.97;;
36415;SDS011;22447;44.530;18.620;2023-01-15T05:27:17;158.27;;;58.72;;
36415;SDS011;22447;44.530;18.620;2023-01-15T05:29:43;153.07;;;61.10;;
36415;SDS011;22447;44.530;18.620;2023-01-15T05:32:09;151.18;;;60.42;;
36415;SDS011;22447;44.530;18.620;2023-01-15T05:34:35;173.65;;;60.67;;
36415;SDS011;22447;44.530;18.620;2023-01-15T05:37:01;132.13;;;54.35;;
36415;SDS011;22447;44.530;18.620;2023-01-15T05:39:27;115.25;;;50.05;;
36415;SDS011;22447;44.530;18.620;2023-01-15T05:41:53;102.82;;;48.35;;
36415;SDS011;22447;44.530;18.620;2023-01-15T05:44:23;100.85;;;47.20;;
36415;SDS011;22447;44.530;18.620;2023-01-15T05:46:51;108.05;;;46.75;;
36415;SDS011;22447;44.530;18.620;2023-01-15T05:49:20;98.28;;;45.95;;
36415;SDS011;22447;44.530;18.620;2023-01-15T05:51:47;130.27;;;55.53;;
36415;SDS011;22447;44.530;18.620;2023-01-15T05:54:15;110.47;;;52.10;;
36415;SDS011;22447;44.530;18.620;2023-01-15T05:56:43;114.30;;;53.30;;
36415;SDS011;22447;44.530;18.620;2023-01-15T05:59:10;128.70;;;55.67;;
36415;SDS011;22447;44.530;18.620;2023-01-15T06:01:39;129.18;;;58.65;;
36415;SDS011;22447;44.530;18.620;2023-01-15T06:04:06;209.05;;;69.45;;
36415;SDS011;22447;44.530;18.620;2023-01-15T06:06:32;201.85;;;73.40;;
36415;SDS011;22447;44.530;18.620;2023-01-15T06:08:59;187.27;;;67.13;;
36415;SDS011;22447;44.530;18.620;2023-01-15T06:11:24;185.65;;;71.43;;
36415;SDS011;22447;44.530;18.620;2023-01-15T06:13:50;187.85;;;72.75;;
36415;SDS011;22447;44.530;18.620;2023-01-15T06:16:16;209.43;;;78.88;;
36415;SDS011;22447;44.530;18.620;2023-01-15T06:18:44;182.65;;;78.72;;
36415;SDS011;22447;44.530;18.620;2023-01-15T06:21:10;207.85;;;84.10;;
36415;SDS011;22447;44.530;18.620;2023-01-15T06:23:37;210.07;;;84.47;;
36415;SDS011;22447;44.530;18.620;2023-01-15T06:26:06;235.65;;;87.90;;
36415;SDS011;22447;44.530;18.620;2023-01-15T06:28:42;250.20;;;90.55;;
36415;SDS011;22447;44.530;18.620;2023-01-15T06:31:10;229.93;;;89.72;;
36415;SDS011;22447;44.530;18.620;2023-01-15T06:33:37;268.42;;;99.45;;
36415;SDS011;22447;44.530;18.620;2023-01-15T06:36:04;244.63;;;96.05;;
36415;SDS011;22447;44.530;18.620;2023-01-15T06:38:31;257.73;;;102.82;;
36415;SDS011;22447;44.530;18.620;2023-01-15T06:40:58;310.35;;;125.57;;
36415;SDS011;22447;44.530;18.620;2023-01-15T06:43:25;298.75;;;116.45;;
36415;SDS011;22447;44.530;18.620;2023-01-15T06:46:10;248.93;;;102.45;;
36415;SDS011;22447;44.530;18.620;2023-01-15T06:48:55;280.33;;;111.30;;
36415;SDS011;22447;44.530;18.620;2023-01-15T06:51:21;321.85;;;128.10;;
36415;SDS011;22447;44.530;18.620;2023-01-15T06:53:47;343.67;;;131.80;;
36415;SDS011;22447;44.530;18.620;2023-01-15T06:56:13;291.52;;;118.55;;
36415;SDS011;22447;44.530;18.620;2023-01-15T06:58:40;302.20;;;120.82;;
36415;SDS011;22447;44.530;18.620;2023-01-15T07:01:10;309.30;;;124.22;;
36415;SDS011;22447;44.530;18.620;2023-01-15T07:03:37;342.98;;;134.05;;
36415;SDS011;22447;44.530;18.620;2023-01-15T07:06:04;319.60;;;131.48;;
36415;SDS011;22447;44.530;18.620;2023-01-15T07:08:34;360.05;;;140.95;;
36415;SDS011;22447;44.530;18.620;2023-01-15T07:11:04;347.10;;;139.45;;
36415;SDS011;22447;44.530;18.620;2023-01-15T07:13:32;310.40;;;130.52;;
36415;SDS011;22447;44.530;18.620;2023-01-15T07:15:59;293.15;;;128.93;;
36415;SDS011;22447;44.530;18.620;2023-01-15T07:18:29;270.38;;;120.90;;
36415;SDS011;22447;44.530;18.620;2023-01-15T07:23:23;272.85;;;118.25;;
36415;SDS011;22447;44.530;18.620;2023-01-15T07:25:53;248.30;;;111.57;;
36415;SDS011;22447;44.530;18.620;2023-01-15T07:28:20;221.68;;;104.10;;
36415;SDS011;22447;44.530;18.620;2023-01-15T07:30:47;230.80;;;106.10;;
36415;SDS011;22447;44.530;18.620;2023-01-15T07:33:13;219.27;;;104.90;;
36415;SDS011;22447;44.530;18.620;2023-01-15T07:35:39;199.63;;;94.72;;
36415;SDS011;22447;44.530;18.620;2023-01-15T07:38:05;207.85;;;97.30;;
36415;SDS011;22447;44.530;18.620;2023-01-15T07:40:31;197.30;;;95.18;;
36415;SDS011;22447;44.530;18.620;2023-01-15T07:42:57;184.57;;;92.95;;
36415;SDS011;22447;44.530;18.620;2023-01-15T07:45:59;189.45;;;91.60;;
36415;SDS011;22447;44.530;18.620;2023-01-15T07:48:43;175.40;;;86.05;;
36415;SDS011;22447;44.530;18.620;2023-01-15T07:51:28;163.25;;;82.22;;
36415;SDS011;22447;44.530;18.620;2023-01-15T07:53:54;145.48;;;77.80;;
36415;SDS011;22447;44.530;18.620;2023-01-15T07:56:20;155.25;;;81.00;;
36415;SDS011;22447;44.530;18.620;2023-01-15T07:58:46;154.65;;;78.07;;
36415;SDS011;22447;44.530;18.620;2023-01-15T08:01:14;138.45;;;75.10;;
36415;SDS011;22447;44.530;18.620;2023-01-15T08:03:40;131.88;;;68.97;;
36415;SDS011;22447;44.530;18.620;2023-01-15T08:06:06;135.07;;;72.70;;
36415;SDS011;22447;44.530;18.620;2023-01-15T08:08:32;97.80;;;57.05;;
36415;SDS011;22447;44.530;18.620;2023-01-15T08:11:01;107.65;;;57.92;;
36415;SDS011;22447;44.530;18.620;2023-01-15T08:13:45;101.55;;;57.05;;
36415;SDS011;22447;44.530;18.620;2023-01-15T08:16:33;113.13;;;57.75;;
36415;SDS011;22447;44.530;18.620;2023-01-15T08:19:00;128.32;;;64.03;;
36415;SDS011;22447;44.530;18.620;2023-01-15T08:21:26;142.55;;;68.28;;
36415;SDS011;22447;44.530;18.620;2023-01-15T08:23:51;154.15;;;73.88;;
36415;SDS011;22447;44.530;18.620;2023-01-15T08:26:18;134.65;;;67.32;;
36415;SDS011;22447;44.530;18.620;2023-01-15T08:28:44;149.05;;;73.82;;
36415;SDS011;22447;44.530;18.620;2023-01-15T08:31:10;161.90;;;77.43;;
36415;SDS011;22447;44.530;18.620;2023-01-15T08:33:36;141.50;;;71.18;;
36415;SDS011;22447;44.530;18.620;2023-01-15T08:36:02;161.05;;;76.18;;
36415;SDS011;22447;44.530;18.620;2023-01-15T08:38:28;168.52;;;71.68;;
36415;SDS011;22447;44.530;18.620;2023-01-15T08:40:54;135.75;;;67.55;;
36415;SDS011;22447;44.530;18.620;2023-01-15T08:43:24;139.18;;;67.03;;
36415;SDS011;22447;44.530;18.620;2023-01-15T08:45:51;125.25;;;64.63;;
36415;SDS011;22447;44.530;18.620;2023-01-15T08:48:17;121.55;;;63.78;;
36415;SDS011;22447;44.530;18.620;2023-01-15T08:50:43;134.77;;;67.68;;
36415;SDS011;22447;44.530;18.620;2023-01-15T08:53:09;130.30;;;68.80;;
36415;SDS011;22447;44.530;18.620;2023-01-15T08:55:36;141.15;;;70.93;;
36415;SDS011;22447;44.530;18.620;2023-01-15T08:58:02;136.40;;;70.40;;
36415;SDS011;22447;44.530;18.620;2023-01-15T09:00:28;124.18;;;64.32;;
36415;SDS011;22447;44.530;18.620;2023-01-15T09:02:54;134.13;;;65.72;;
36415;SDS011;22447;44.530;18.620;2023-01-15T09:05:20;153.50;;;71.18;;
36415;SDS011;22447;44.530;18.620;2023-01-15T09:07:46;144.27;;;73.00;;
36415;SDS011;22447;44.530;18.620;2023-01-15T09:10:12;143.18;;;74.68;;
36415;SDS011;22447;44.530;18.620;2023-01-15T09:12:38;159.48;;;75.90;;
36415;SDS011;22447;44.530;18.620;2023-01-15T09:15:05;165.13;;;81.10;;
36415;SDS011;22447;44.530;18.620;2023-01-15T09:17:31;155.45;;;79.80;;
36415;SDS011;22447;44.530;18.620;2023-01-15T09:19:57;146.50;;;75.78;;
36415;SDS011;22447;44.530;18.620;2023-01-15T09:22:23;159.95;;;79.53;;
36415;SDS011;22447;44.530;18.620;2023-01-15T09:24:54;131.35;;;71.20;;
36415;SDS011;22447;44.530;18.620;2023-01-15T09:27:19;136.50;;;69.45;;
36415;SDS011;22447;44.530;18.620;2023-01-15T09:29:45;132.93;;;71.00;;
36415;SDS011;22447;44.530;18.620;2023-01-15T09:32:11;129.48;;;69.25;;
36415;SDS011;22447;44.530;18.620;2023-01-15T09:34:37;135.82;;;67.45;;
36415;SDS011;22447;44.530;18.620;2023-01-15T09:37:03;129.88;;;66.43;;
36415;SDS011;22447;44.530;18.620;2023-01-15T09:39:29;130.10;;;67.00;;
36415;SDS011;22447;44.530;18.620;2023-01-15T09:47:25;135.75;;;69.40;;
36415;SDS011;22447;44.530;18.620;2023-01-15T09:49:58;117.38;;;65.15;;
36415;SDS011;22447;44.530;18.620;2023-01-15T09:55:15;122.60;;;68.75;;
36415;SDS011;22447;44.530;18.620;2023-01-15T09:57:45;127.28;;;67.43;;
36415;SDS011;22447;44.530;18.620;2023-01-15T10:00:19;119.68;;;64.57;;
36415;SDS011;22447;44.530;18.620;2023-01-15T10:02:49;120.13;;;65.50;;
36415;SDS011;22447;44.530;18.620;2023-01-15T10:11:05;114.38;;;62.53;;
36415;SDS011;22447;44.530;18.620;2023-01-15T10:13:44;112.10;;;61.40;;
36415;SDS011;22447;44.530;18.620;2023-01-15T10:16:21;132.35;;;67.13;;
36415;SDS011;22447;44.530;18.620;2023-01-15T10:18:49;118.53;;;62.50;;
36415;SDS011;22447;44.530;18.620;2023-01-15T10:24:08;119.63;;;66.22;;
36415;SDS011;22447;44.530;18.620;2023-01-15T10:26:55;124.53;;;66.85;;
36415;SDS011;22447;44.530;18.620;2023-01-15T10:32:02;110.00;;;64.72;;
36415;SDS011;22447;44.530;18.620;2023-01-15T10:43:24;124.78;;;73.53;;
36415;SDS011;22447;44.530;18.620;2023-01-15T10:45:55;146.35;;;77.70;;
36415;SDS011;22447;44.530;18.620;2023-01-15T10:48:37;119.80;;;72.85;;
36415;SDS011;22447;44.530;18.620;2023-01-15T10:51:23;133.80;;;77.22;;
36415;SDS011;22447;44.530;18.620;2023-01-15T10:56:37;124.50;;;73.78;;
36415;SDS011;22447;44.530;18.620;2023-01-15T11:01:58;124.32;;;72.65;;
36415;SDS011;22447;44.530;18.620;2023-01-15T11:04:28;133.38;;;76.55;;
36415;SDS011;22447;44.530;18.620;2023-01-15T11:06:57;129.23;;;76.00;;
36415;SDS011;22447;44.530;18.620;2023-01-15T11:09:25;135.10;;;75.80;;
36415;SDS011;22447;44.530;18.620;2023-01-15T11:12:03;119.28;;;71.43;;
36415;SDS011;22447;44.530;18.620;2023-01-15T11:14:43;137.95;;;75.78;;
36415;SDS011;22447;44.530;18.620;2023-01-15T11:17:42;114.68;;;70.65;;
36415;SDS011;22447;44.530;18.620;2023-01-15T11:20:31;119.95;;;71.47;;
36415;SDS011;22447;44.530;18.620;2023-01-15T11:23:15;126.72;;;70.38;;
36415;SDS011;22447;44.530;18.620;2023-01-15T11:25:51;120.43;;;68.15;;
36415;SDS011;22447;44.530;18.620;2023-01-15T11:28:30;109.95;;;66.53;;
36415;SDS011;22447;44.530;18.620;2023-01-15T11:31:04;123.82;;;71.63;;
36415;SDS011;22447;44.530;18.620;2023-01-15T11:33:32;119.25;;;72.05;;
36415;SDS011;22447;44.530;18.620;2023-01-15T11:35:59;125.28;;;70.72;;
36415;SDS011;22447;44.530;18.620;2023-01-15T11:38:44;118.57;;;68.75;;
36415;SDS011;22447;44.530;18.620;2023-01-15T11:44:15;121.00;;;67.82;;
36415;SDS011;22447;44.530;18.620;2023-01-15T11:47:01;115.25;;;68.32;;
36415;SDS011;22447;44.530;18.620;2023-01-15T11:49:49;114.03;;;67.00;;
36415;SDS011;22447;44.530;18.620;2023-01-15T11:52:36;124.00;;;66.90;;
36415;SDS011;22447;44.530;18.620;2023-01-15T11:55:17;113.68;;;65.18;;
36415;SDS011;22447;44.530;18.620;2023-01-15T11:57:45;127.95;;;69.50;;
36415;SDS011;22447;44.530;18.620;2023-01-15T12:00:32;109.40;;;66.53;;
36415;SDS011;22447;44.530;18.620;2023-01-15T12:03:05;116.00;;;67.43;;
36415;SDS011;22447;44.530;18.620;2023-01-15T12:05:43;116.00;;;66.03;;
36415;SDS011;22447;44.530;18.620;2023-01-15T12:09:09;103.25;;;62.97;;
36415;SDS011;22447;44.530;18.620;2023-01-15T12:20:28;105.40;;;59.40;;
36415;SDS011;22447;44.530;18.620;2023-01-15T12:23:08;95.95;;;58.95;;
36415;SDS011;22447;44.530;18.620;2023-01-15T12:28:25;97.55;;;56.60;;
36415;SDS011;22447;44.530;18.620;2023-01-15T12:31:04;91.57;;;54.33;;
36415;SDS011;22447;44.530;18.620;2023-01-15T12:36:26;93.53;;;55.17;;
36415;SDS011;22447;44.530;18.620;2023-01-15T12:39:24;92.88;;;56.13;;
36415;SDS011;22447;44.530;18.620;2023-01-15T12:41:59;93.78;;;54.55;;
36415;SDS011;22447;44.530;18.620;2023-01-15T12:44:48;102.30;;;56.38;;
36415;SDS011;22447;44.530;18.620;2023-01-15T12:47:47;93.45;;;55.25;;
36415;SDS011;22447;44.530;18.620;2023-01-15T12:50:27;88.32;;;53.15;;
36415;SDS011;22447;44.530;18.620;2023-01-15T12:52:58;88.25;;;53.42;;
36415;SDS011;22447;44.530;18.620;2023-01-15T12:55:49;86.47;;;51.83;;
36415;SDS011;22447;44.530;18.620;2023-01-15T13:03:44;88.45;;;53.33;;
36415;SDS011;22447;44.530;18.620;2023-01-15T13:06:22;92.60;;;53.55;;
36415;SDS011;22447;44.530;18.620;2023-01-15T13:08:58;86.40;;;52.30;;
36415;SDS011;22447;44.530;18.620;2023-01-15T13:11:28;82.53;;;50.70;;
36415;SDS011;22447;44.530;18.620;2023-01-15T13:13:54;84.47;;;51.22;;
36415;SDS011;22447;44.530;18.620;2023-01-15T13:16:57;79.80;;;47.50;;
36415;SDS011;22447;44.530;18.620;2023-01-15T13:19:34;80.47;;;46.30;;
36415;SDS011;22447;44.530;18.620;2023-01-15T13:22:12;102.93;;;53.67;;
36415;SDS011;22447;44.530;18.620;2023-01-15T13:24:58;86.57;;;46.60;;
36415;SDS011;22447;44.530;18.620;2023-01-15T13:27:47;74.25;;;45.70;;
36415;SDS011;22447;44.530;18.620;2023-01-15T13:30:34;66.93;;;42.25;;
36415;SDS011;22447;44.530;18.620;2023-01-15T13:33:22;67.00;;;41.38;;
36415;SDS011;22447;44.530;18.620;2023-01-15T13:36:00;68.72;;;42.55;;
36415;SDS011;22447;44.530;18.620;2023-01-15T13:38:39;73.15;;;43.45;;
36415;SDS011;22447;44.530;18.620;2023-01-15T13:41:08;72.40;;;43.55;;
36415;SDS011;22447;44.530;18.620;2023-01-15T13:43:38;70.72;;;44.95;;
36415;SDS011;22447;44.530;18.620;2023-01-15T13:46:10;75.88;;;45.33;;
36415;SDS011;22447;44.530;18.620;2023-01-15T13:48:44;72.45;;;44.75;;
36415;SDS011;22447;44.530;18.620;2023-01-15T13:51:32;75.72;;;42.17;;
36415;SDS011;22447;44.530;18.620;2023-01-15T13:54:12;61.55;;;36.97;;
36415;SDS011;22447;44.530;18.620;2023-01-15T13:56:43;62.88;;;39.72;;
36415;SDS011;22447;44.530;18.620;2023-01-15T14:02:17;49.13;;;29.75;;
36415;SDS011;22447;44.530;18.620;2023-01-15T14:04:50;56.38;;;31.85;;
36415;SDS011;22447;44.530;18.620;2023-01-15T14:07:17;53.00;;;30.15;;
36415;SDS011;22447;44.530;18.620;2023-01-15T14:09:54;60.90;;;30.90;;
36415;SDS011;22447;44.530;18.620;2023-01-15T14:12:35;52.70;;;29.65;;
36415;SDS011;22447;44.530;18.620;2023-01-15T14:15:39;57.72;;;30.17;;
36415;SDS011;22447;44.530;18.620;2023-01-15T14:18:29;46.97;;;27.55;;
36415;SDS011;22447;44.530;18.620;2023-01-15T14:21:26;42.38;;;27.23;;
36415;SDS011;22447;44.530;18.620;2023-01-15T14:27:03;52.55;;;27.23;;
36415;SDS011;22447;44.530;18.620;2023-01-15T14:35:18;40.38;;;22.60;;
36415;SDS011;22447;44.530;18.620;2023-01-15T14:40:27;83.32;;;40.80;;
36415;SDS011;22447;44.530;18.620;2023-01-15T14:42:55;55.90;;;28.50;;
36415;SDS011;22447;44.530;18.620;2023-01-15T14:45:32;48.22;;;26.98;;
36415;SDS011;22447;44.530;18.620;2023-01-15T14:50:53;146.43;;;64.25;;
36415;SDS011;22447;44.530;18.620;2023-01-15T14:53:36;103.47;;;46.95;;
36415;SDS011;22447;44.530;18.620;2023-01-15T14:56:17;125.63;;;53.95;;
36415;SDS011;22447;44.530;18.620;2023-01-15T14:59:00;116.15;;;49.00;;
36415;SDS011;22447;44.530;18.620;2023-01-15T15:06:41;185.00;;;81.18;;
36415;SDS011;22447;44.530;18.620;2023-01-15T15:09:18;179.10;;;81.25;;
36415;SDS011;22447;44.530;18.620;2023-01-15T15:11:54;211.27;;;92.70;;
36415;SDS011;22447;44.530;18.620;2023-01-15T15:14:47;290.10;;;125.75;;
36415;SDS011;22447;44.530;18.620;2023-01-15T15:17:42;276.92;;;125.93;;
36415;SDS011;22447;44.530;18.620;2023-01-15T15:20:36;256.17;;;106.47;;
36415;SDS011;22447;44.530;18.620;2023-01-15T15:29:02;161.43;;;81.53;;
36415;SDS011;22447;44.530;18.620;2023-01-15T15:31:33;319.85;;;164.65;;
36415;SDS011;22447;44.530;18.620;2023-01-15T15:34:09;390.42;;;206.25;;
36415;SDS011;22447;44.530;18.620;2023-01-15T15:37:03;422.08;;;220.65;;
36415;SDS011;22447;44.530;18.620;2023-01-15T15:40:01;409.52;;;203.95;;
36415;SDS011;22447;44.530;18.620;2023-01-15T15:45:23;220.20;;;113.47;;
36415;SDS011;22447;44.530;18.620;2023-01-15T15:57:19;185.05;;;98.00;;
36415;SDS011;22447;44.530;18.620;2023-01-15T15:59:46;183.65;;;94.03;;
36415;SDS011;22447;44.530;18.620;2023-01-15T16:02:17;208.68;;;108.03;;
36415;SDS011;22447;44.530;18.620;2023-01-15T16:07:43;206.73;;;109.75;;
36415;SDS011;22447;44.530;18.620;2023-01-15T16:10:13;309.33;;;156.27;;
36415;SDS011;22447;44.530;18.620;2023-01-15T16:12:52;246.30;;;124.68;;
36415;SDS011;22447;44.530;18.620;2023-01-15T16:15:25;233.43;;;121.38;;
36415;SDS011;22447;44.530;18.620;2023-01-15T16:17:54;336.85;;;174.27;;
36415;SDS011;22447;44.530;18.620;2023-01-15T16:20:22;374.13;;;195.05;;
36415;SDS011;22447;44.530;18.620;2023-01-15T16:25:23;295.23;;;153.75;;